Shiraz, ایران

06:29 PM +0430 on اوت 17, 2018 (GMT +0430)
Shahid Dastghaib International

آب و هوا گذشتهَ OISS - فوریه, 2018

Change the Weather History Date:

چهارشنبه, فوریه 14, 2018

  Actual Average Record
Temperature  
متوسط دما 60 °F -  
ماکزیمم دما 68 °F 62 °F 73 °F (2004)
حداقل دما 50 °F 38 °F 26 °F (2011)
Degree Days  
Heating Degree Days 4    
Growing Degree Days 10 (Base 50)    
Moisture  
قطره شبنم 30 °F    
Average Humidity 29    
Maximum Humidity 54    
Minimum Humidity 8    
بارش  
بارش 0.00 در 0.06 در - ()
فشار سطح دریا  
فشار سطح دریا 30.16 در    
باد  
سرعت باد 10 mph ()    
حداکثرسرعت باد 30 mph    
Max Gust Speed 39 mph    
ديد 3.1 مايل، ميل (در برابر كيلومتر    
رویدادها باران    
Averages and records for this station are not official NWS values.
T = Trace of Precipitation, MM = Missing Value Source: Averaged Metar Reports

Daily Weather History Graph

Daily Weather History Graph

Search for Another Location

Airport or City:

ستاره شناسی

Feb. 14, 2018 Rise Set
وقت حقیقی 6:40 AM +0330 5:47 PM +0330
تاریک و روشن اجتماعی 6:15 AM +0330 6:12 PM +0330
تاریک روشن دریایی 5:47 AM +0330 6:40 PM +0330
شفق و فلق نجومی 5:19 AM +0330 7:08 PM +0330
ماه 5:36 AM +0330 (2/14) 4:34 PM +0330 (2/14)
میزان روشنایی روز 11h 56m
طول روز
11h 07m
Waning Crescent, 2% of the Moon is Illuminated
Feb 14
Waning Crescent
Feb 16
New
Feb 23
ربع اول
Mar 2
ماه کامل
Mar 9
ربع آخر

Hourly Weather History & Observations

زمان (+0330) دما قطره شبنم رطوبت فشار ديد Wind Dir سرعت باد سرعت تندباد Precip رویدادها شرايط عادی
12:00 AM 62.6 °F 19.4 °F 19% 30.12 در 6.2 mi آرام آرام - N/A   نيم ابرى
12:20 AM 62.6 °F 23.0 °F 22% 30.12 در 5.0 mi آرام آرام - N/A   نيم ابرى
12:30 AM 62 °F 23 °F 12% 29.88 در 5 mi آرام آرام - -   مه
12:30 AM 62.6 °F 23.0 °F 22% 30.12 در 5.0 mi آرام آرام - N/A   نيم ابرى
12:55 AM 62.6 °F 23.0 °F 22% 30.12 در 4.3 mi جنوب 4.6 mph - N/A   نيم ابرى
1:00 AM 62.6 °F 23.0 °F 22% 30.12 در 4.3 mi جنوب 4.6 mph - N/A   نيم ابرى
1:20 AM 64.4 °F 21.2 °F 19% 30.09 در 4.3 mi جنوب 9.2 mph - N/A   نيم ابرى
1:30 AM 64.4 °F 21.2 °F 19% 30.09 در 4.3 mi جنوب 9.2 mph - N/A   نيم ابرى
1:55 AM 64.4 °F 23.0 °F 21% 30.09 در 4.3 mi آرام آرام - N/A   نيم ابرى
2:00 AM 64.4 °F 23.0 °F 21% 30.09 در 4.3 mi آرام آرام - N/A   نيم ابرى
2:20 AM 62.6 °F 23.0 °F 22% 30.09 در 4.3 mi آرام آرام - N/A   نيم ابرى
2:30 AM 62.6 °F 23.0 °F 22% 30.09 در 4.3 mi آرام آرام - N/A   نيم ابرى
2:55 AM 62.6 °F 21.2 °F 20% 30.09 در 4.3 mi جنوب 4.6 mph - N/A   نيم ابرى
3:00 AM 62.6 °F 21.2 °F 20% 30.09 در 4.3 mi جنوب 4.6 mph - N/A   نيم ابرى
3:20 AM 62.6 °F 24.8 °F 24% 30.09 در 3.7 mi جنوب 6.9 mph - N/A   نيم ابرى
3:30 AM 63 °F 25 °F 13% 29.83 در 4 mi جنوب 6.7 mph - -   مه
3:30 AM 62.6 °F 24.8 °F 24% 30.09 در 3.7 mi جنوب 6.9 mph - N/A   نيم ابرى
3:55 AM 62.6 °F 19.4 °F 19% 30.12 در 3.7 mi جنوب غربی 4.6 mph - N/A   نيم ابرى
4:00 AM 62.6 °F 19.4 °F 19% 30.12 در 3.7 mi جنوب غربی 4.6 mph - N/A   نيم ابرى
4:03 AM 66.2 °F 23.0 °F 19% 30.12 در 1.2 mi WSW 18.4 mph - N/A   شن
4:20 AM 66.2 °F 26.6 °F 23% 30.12 در 1.2 mi SSW 23.0 mph - N/A   شن
4:30 AM 66.2 °F 26.6 °F 23% 30.12 در 1.2 mi SSW 23.0 mph - N/A   شن
4:40 AM 66.2 °F 23.0 °F 19% 30.12 در 3.7 mi جنوب غربی 13.8 mph - N/A   نيم ابرى
4:55 AM 66.2 °F 24.8 °F 21% 30.09 در 3.1 mi SSW 29.9 mph - N/A   شن
5:00 AM 66.2 °F 24.8 °F 21% 30.09 در 3.1 mi SSW 29.9 mph - N/A   شن
5:20 AM 66.2 °F 21.2 °F 18% 30.06 در 3.1 mi جنوب غربی 27.6 mph - N/A   شن
5:30 AM 66.2 °F 21.2 °F 18% 30.06 در 3.1 mi جنوب غربی 27.6 mph - N/A   شن
5:55 AM 68.0 °F 21.2 °F 17% 30.09 در 3.1 mi SSW 16.1 mph - N/A   شن
6:00 AM 68.0 °F 21.2 °F 17% 30.09 در 3.1 mi SSW 16.1 mph - N/A   شن
6:20 AM 68.0 °F 21.2 °F 17% 30.12 در 3.1 mi WSW 16.1 mph - N/A   شن
6:30 AM 68 °F 21 °F 8% 29.90 در 3 mi WSW 15.7 mph - -   وزش شن
6:30 AM 68.0 °F 21.2 °F 17% 30.12 در 3.1 mi WSW 16.1 mph - N/A   شن
6:55 AM 66.2 °F 21.2 °F 18% 30.15 در 1.9 mi جنوب غربی 18.4 mph - N/A   شن
7:00 AM 66.2 °F 21.2 °F 18% 30.15 در 1.9 mi جنوب غربی 18.4 mph - N/A   شن
7:20 AM 64.4 °F 26.6 °F 24% 30.18 در 1.6 mi جنوب غربی 23.0 mph - N/A   شن
7:30 AM 64.4 °F 26.6 °F 24% 30.18 در 1.6 mi جنوب غربی 23.0 mph - N/A   شن
7:50 AM 62.6 °F 28.4 °F 27% 30.21 در 1.6 mi جنوب غربی 16.1 mph 34.5 mph N/A   شن
8:00 AM 62.6 °F 28.4 °F 27% 30.21 در 1.6 mi جنوب غربی 16.1 mph 34.5 mph N/A   شن
8:20 AM 62.6 °F 28.4 °F 27% 30.18 در 1.9 mi SSW 18.4 mph - N/A   شن
8:30 AM 62.6 °F 28.4 °F 27% 30.18 در 1.9 mi SSW 18.4 mph - N/A   شن
8:50 AM 66.2 °F 28.4 °F 24% 30.21 در 2.5 mi جنوب 20.7 mph 39.1 mph N/A   شن
9:00 AM 66.2 °F 28.4 °F 24% 30.21 در 2.5 mi جنوب 20.7 mph 39.1 mph N/A   شن
9:20 AM 64.4 °F 28.4 °F 26% 30.21 در 1.6 mi جنوب غربی 18.4 mph 33.4 mph N/A   شن
9:30 AM 65 °F 29 °F 15% 29.98 در 2 mi جنوب غربی 17.9 mph - -   وزش شن
9:30 AM 64.4 °F 28.4 °F 26% 30.21 در 1.6 mi جنوب غربی 18.4 mph 33.4 mph N/A   شن
9:50 AM 64.4 °F 30.2 °F 28% 30.21 در 1.9 mi جنوب غربی 16.1 mph 34.5 mph N/A   شن
10:00 AM 64.4 °F 30.2 °F 28% 30.21 در 1.9 mi جنوب غربی 16.1 mph 34.5 mph N/A   شن
10:20 AM 64.4 °F 32.0 °F 30% 30.21 در 1.9 mi SSW 20.7 mph 38.0 mph N/A   شن
10:30 AM 64.4 °F 32.0 °F 30% 30.21 در 1.9 mi SSW 20.7 mph 38.0 mph N/A   شن
10:50 AM 64.4 °F 32.0 °F 30% 30.21 در 1.9 mi جنوب غربی 11.5 mph 26.5 mph N/A   شن
11:00 AM 64.4 °F 32.0 °F 30% 30.21 در 1.9 mi جنوب غربی 11.5 mph 26.5 mph N/A   شن
11:20 AM 64.4 °F 35.6 °F 34% 30.24 در 1.9 mi جنوب غربی 18.4 mph 32.2 mph N/A باران رگبار خفيف
11:30 AM 64.4 °F 35.6 °F 34% 30.24 در 1.9 mi جنوب غربی 18.4 mph 32.2 mph N/A باران رگبار خفيف
11:50 AM 64.4 °F 35.6 °F 34% 30.21 در 1.9 mi جنوب 13.8 mph 27.6 mph N/A   شن
12:00 PM 64.4 °F 35.6 °F 34% 30.21 در 1.9 mi جنوب 13.8 mph 27.6 mph N/A   شن
12:20 PM 62.6 °F 37.4 °F 39% 30.21 در 1.9 mi SSE 9.2 mph - N/A   بیشتر ابری
12:30 PM 63 °F 37 °F 27% 30.00 در 2 mi SSE 8.9 mph - -   گرد و غبار شامل
12:30 PM 62.6 °F 37.4 °F 39% 30.21 در 1.9 mi SSE 9.2 mph - N/A   بیشتر ابری
12:50 PM 62.6 °F 35.6 °F 37% 30.21 در 1.9 mi جنوب 13.8 mph 26.5 mph N/A   شن
1:00 PM 62.6 °F 35.6 °F 37% 30.21 در 1.9 mi جنوب 13.8 mph 26.5 mph N/A   شن
1:20 PM 62.6 °F 37.4 °F 39% 30.18 در 2.5 mi SSE 9.2 mph - N/A   بیشتر ابری
1:30 PM 62.6 °F 37.4 °F 39% 30.18 در 2.5 mi SSE 9.2 mph - N/A   بیشتر ابری
1:50 PM 64.4 °F 35.6 °F 34% 30.18 در 2.5 mi جنوب شرقی 6.9 mph - N/A   بیشتر ابری
2:00 PM 64.4 °F 35.6 °F 34% 30.18 در 2.5 mi جنوب شرقی 6.9 mph - N/A   بیشتر ابری
2:20 PM 66.2 °F 32.0 °F 28% 30.18 در 3.1 mi SSW 13.8 mph - N/A   بیشتر ابری
2:30 PM 66.2 °F 32.0 °F 28% 30.18 در 3.1 mi SSW 13.8 mph - N/A   بیشتر ابری
2:50 PM 66.2 °F 30.2 °F 26% 30.18 در 3.1 mi SSW 13.8 mph - N/A   ابرهای پراکنده
3:00 PM 66.2 °F 30.2 °F 26% 30.18 در 3.1 mi SSW 13.8 mph - N/A   ابرهای پراکنده
3:20 PM 68.0 °F 32.0 °F 26% 30.18 در 3.1 mi جنوب 16.1 mph - N/A   ابرهای پراکنده
3:30 PM 67 °F 32 °F 16% 29.95 در 3 mi جنوب 15.7 mph - -   گرد و غبار شامل
3:30 PM 68.0 °F 32.0 °F 26% 30.18 در 3.1 mi جنوب 16.1 mph - N/A   ابرهای پراکنده
3:50 PM 66.2 °F 30.2 °F 26% 30.18 در 3.1 mi SSW 9.2 mph - N/A   ابرهای پراکنده
4:00 PM 66.2 °F 30.2 °F 26% 30.18 در 3.1 mi SSW 9.2 mph - N/A   ابرهای پراکنده
4:20 PM 66.2 °F 32.0 °F 28% 30.18 در 3.1 mi جنوب غربی 4.6 mph - N/A   ابرهای پراکنده
4:30 PM 66.2 °F 32.0 °F 28% 30.18 در 3.1 mi جنوب غربی 4.6 mph - N/A   ابرهای پراکنده
4:50 PM 64.4 °F 32.0 °F 30% 30.18 در 3.1 mi جنوب 16.1 mph - N/A   ابرهای پراکنده
5:00 PM 64.4 °F 32.0 °F 30% 30.18 در 3.1 mi جنوب 16.1 mph - N/A   ابرهای پراکنده
5:20 PM 64.4 °F 32.0 °F 30% 30.18 در 3.1 mi جنوب 16.1 mph - N/A   ابرهای پراکنده
5:30 PM 64.4 °F 32.0 °F 30% 30.18 در 3.1 mi جنوب 16.1 mph - N/A   ابرهای پراکنده
5:50 PM 62.6 °F 35.6 °F 37% 30.18 در 3.1 mi جنوب 21.9 mph - N/A   ابرهای پراکنده
6:00 PM 62.6 °F 35.6 °F 37% 30.18 در 3.1 mi جنوب 21.9 mph - N/A   ابرهای پراکنده
6:20 PM 62.6 °F 32.0 °F 32% 30.18 در 3.1 mi SSW 16.1 mph - N/A   ابرهای پراکنده
6:30 PM 62 °F 33 °F 22% 29.95 در 3 mi SSW 15.7 mph - -   گرد و غبار شامل
6:30 PM 62.6 °F 32.0 °F 32% 30.18 در 3.1 mi SSW 16.1 mph - N/A   ابرهای پراکنده
6:50 PM 60.8 °F 35.6 °F 39% 30.18 در 3.1 mi جنوب 13.8 mph - N/A   ابرهای پراکنده
7:00 PM 60.8 °F 35.6 °F 39% 30.18 در 3.1 mi جنوب 13.8 mph - N/A   ابرهای پراکنده
7:20 PM 60.8 °F 33.8 °F 36% 30.21 در 3.7 mi SSW 11.5 mph - N/A   ابرهای پراکنده
7:30 PM 60.8 °F 33.8 °F 36% 30.21 در 3.7 mi SSW 11.5 mph - N/A   ابرهای پراکنده
7:50 PM 59.0 °F 33.8 °F 39% 30.21 در 3.7 mi SSW 9.2 mph - N/A   ابرهای پراکنده
8:00 PM 59.0 °F 33.8 °F 39% 30.21 در 3.7 mi SSW 9.2 mph - N/A   ابرهای پراکنده
8:20 PM 59.0 °F 33.8 °F 39% 30.24 در 3.7 mi جنوب 11.5 mph - N/A   ابرهای پراکنده
8:30 PM 59.0 °F 33.8 °F 39% 30.24 در 3.7 mi جنوب 11.5 mph - N/A   ابرهای پراکنده
8:50 PM 59.0 °F 33.8 °F 39% 30.24 در 4.3 mi جنوب 6.9 mph - N/A   ابرهای پراکنده
9:00 PM 59.0 °F 33.8 °F 39% 30.24 در 4.3 mi جنوب 6.9 mph - N/A   ابرهای پراکنده
9:20 PM 59.0 °F 33.8 °F 39% 30.24 در 4.3 mi SSE 9.2 mph - N/A   ابرهای پراکنده
9:30 PM 59 °F 34 °F 27% 30.04 در 4 mi SSE 8.9 mph - -   گرد و غبار شامل
9:30 PM 59.0 °F 33.8 °F 39% 30.24 در 4.3 mi SSE 9.2 mph - N/A   ابرهای پراکنده
9:50 PM 57.2 °F 35.6 °F 44% 30.24 در 4.3 mi جنوب غربی 6.9 mph - N/A   ابرهای پراکنده
10:00 PM 57.2 °F 35.6 °F 44% 30.24 در 4.3 mi جنوب غربی 6.9 mph - N/A   ابرهای پراکنده
10:20 PM 57.2 °F 35.6 °F 44% 30.27 در 4.3 mi آرام آرام - N/A   ابرهای پراکنده
10:30 PM 57.2 °F 35.6 °F 44% 30.27 در 4.3 mi آرام آرام - N/A   ابرهای پراکنده
10:50 PM 57.2 °F 35.6 °F 44% 30.27 در 4.3 mi NNE 4.6 mph - N/A   ابرهای پراکنده
11:00 PM 57.2 °F 35.6 °F 44% 30.27 در 4.3 mi NNE 4.6 mph - N/A   ابرهای پراکنده
11:20 PM 53.6 °F 35.6 °F 51% 30.27 در 4.3 mi آرام آرام - N/A   ابرهای پراکنده
11:30 PM 53.6 °F 35.6 °F 51% 30.27 در 4.3 mi آرام آرام - N/A   ابرهای پراکنده
11:50 PM 50.0 °F 33.8 °F 54% 30.27 در 4.3 mi آرام آرام - N/A   ابرهای پراکنده